createdAt,value
2023-08-01T00:04:12.115Z,17.66
2023-08-01T00:09:17.491Z,17.64
2023-08-01T00:14:25.328Z,17.59
2023-08-01T00:19:31.092Z,17.51
2023-08-01T00:24:38.425Z,17.41
2023-08-01T00:29:44.123Z,17.29
2023-08-01T00:34:51.063Z,17.17
2023-08-01T00:39:56.380Z,17.07
2023-08-01T00:45:01.926Z,16.98
2023-08-01T00:50:08.693Z,16.90
2023-08-01T00:55:14.180Z,16.83
2023-08-01T01:00:19.907Z,16.75
2023-08-01T01:05:28.437Z,16.65
2023-08-01T01:10:33.919Z,16.58
2023-08-01T01:15:39.427Z,16.54
2023-08-01T01:20:44.799Z,16.48
2023-08-01T01:25:52.419Z,16.45
2023-08-01T01:30:58.874Z,16.41
2023-08-01T01:36:05.195Z,16.37
2023-08-01T01:41:12.460Z,16.32
2023-08-01T01:46:17.912Z,16.29
2023-08-01T01:51:23.989Z,16.28
2023-08-01T01:56:29.452Z,16.27
2023-08-01T02:01:34.795Z,16.25
2023-08-01T02:06:40.539Z,16.25
2023-08-01T02:11:46.076Z,16.24
2023-08-01T02:16:51.460Z,16.26
2023-08-01T02:21:57.015Z,16.26
2023-08-01T02:27:02.320Z,16.25
2023-08-01T02:32:09.090Z,16.23
2023-08-01T02:37:14.596Z,16.23
2023-08-01T02:42:19.985Z,16.23
2023-08-01T02:47:25.388Z,16.23
2023-08-01T02:52:31.373Z,16.23
2023-08-01T02:57:36.791Z,16.23
2023-08-01T03:02:42.304Z,16.24
2023-08-01T03:07:47.924Z,16.24
2023-08-01T03:12:53.295Z,16.25
2023-08-01T03:17:58.694Z,16.26
2023-08-01T03:23:04.428Z,16.25
2023-08-01T03:28:10.598Z,16.25
2023-08-01T03:33:16.036Z,16.25
2023-08-01T03:38:21.448Z,16.26
2023-08-01T03:43:26.848Z,16.26
2023-08-01T03:48:32.331Z,16.25
2023-08-01T03:53:37.904Z,16.25
2023-08-01T03:58:43.260Z,16.25
2023-08-01T04:03:49.444Z,16.28
2023-08-01T04:08:57.653Z,16.30
2023-08-01T04:14:03.058Z,16.34
2023-08-01T04:19:08.458Z,16.40
2023-08-01T04:24:13.972Z,16.43
2023-08-01T04:29:19.434Z,16.45
2023-08-01T04:34:25.300Z,16.45
2023-08-01T04:39:30.653Z,16.46
2023-08-01T04:44:36.031Z,16.49
2023-08-01T04:49:41.396Z,16.50
2023-08-01T04:54:46.910Z,16.52
2023-08-01T04:59:52.303Z,16.54
2023-08-01T05:04:57.676Z,16.57
2023-08-01T05:10:03.231Z,16.60
2023-08-01T05:15:10.220Z,16.63
2023-08-01T05:20:16.543Z,16.67
2023-08-01T05:25:22.142Z,16.70
2023-08-01T05:30:27.811Z,16.73
2023-08-01T05:35:33.292Z,16.77
2023-08-01T05:40:38.692Z,16.83
2023-08-01T05:45:44.065Z,16.88
2023-08-01T05:50:49.504Z,16.91
2023-08-01T05:55:54.922Z,16.95
2023-08-01T06:01:00.306Z,16.95
2023-08-01T06:06:05.731Z,16.97
2023-08-01T06:11:11.354Z,16.98
2023-08-01T06:16:16.743Z,17.02
2023-08-01T06:21:22.361Z,17.08
2023-08-01T06:26:28.248Z,17.10
2023-08-01T06:31:33.678Z,17.14
2023-08-01T06:36:39.552Z,17.16
2023-08-01T06:41:45.140Z,17.22
2023-08-01T06:46:50.640Z,17.23
2023-08-01T06:51:56.085Z,17.24
2023-08-01T06:57:01.821Z,17.21
2023-08-01T07:02:09.782Z,17.24
2023-08-01T07:07:15.265Z,17.28
2023-08-01T07:12:20.666Z,17.32
2023-08-01T07:17:26.070Z,17.41
2023-08-01T07:22:31.406Z,17.53
2023-08-01T07:27:38.881Z,17.65
2023-08-01T07:32:44.497Z,17.76
2023-08-01T07:37:49.877Z,17.89
2023-08-01T07:42:55.347Z,18.05
2023-08-01T07:48:00.840Z,18.24
2023-08-01T07:53:06.384Z,18.55
2023-08-01T07:58:11.827Z,18.77
2023-08-01T08:03:17.763Z,19.01
2023-08-01T08:08:23.481Z,19.17
2023-08-01T08:13:29.016Z,19.30
2023-08-01T08:18:34.412Z,19.38
2023-08-01T08:23:40.348Z,19.40
2023-08-01T08:28:45.774Z,19.31
2023-08-01T08:33:51.121Z,19.23
2023-08-01T08:38:56.532Z,19.22
2023-08-01T08:44:02.635Z,19.35
2023-08-01T08:49:08.703Z,19.55
2023-08-01T08:54:14.754Z,19.69
2023-08-01T08:59:21.363Z,19.76
2023-08-01T09:04:26.707Z,19.86
2023-08-01T09:09:32.514Z,19.86
2023-08-01T09:14:38.003Z,19.94
2023-08-01T09:19:43.411Z,20.08
2023-08-01T09:24:54.492Z,20.37
2023-08-01T09:30:10.739Z,20.66
2023-08-01T09:35:16.360Z,20.85
2023-08-01T09:40:22.967Z,20.85
2023-08-01T09:45:28.338Z,20.68
2023-08-01T09:50:34.090Z,20.48
2023-08-01T09:55:41.146Z,20.35
2023-08-01T10:00:46.594Z,20.14
2023-08-01T10:05:54.845Z,20.03
2023-08-01T10:11:01.424Z,19.99
2023-08-01T10:16:08.899Z,19.84
2023-08-01T10:21:18.298Z,19.67
2023-08-01T10:26:23.974Z,19.59
2023-08-01T10:31:29.719Z,19.47
2023-08-01T10:36:35.587Z,19.31
2023-08-01T10:41:41.373Z,19.12
2023-08-01T10:46:51.452Z,18.85
2023-08-01T10:51:58.006Z,18.60
2023-08-01T10:57:04.477Z,18.43
2023-08-01T11:02:09.853Z,18.31
2023-08-01T11:07:15.422Z,18.21
2023-08-01T11:12:20.819Z,18.11
2023-08-01T11:17:26.286Z,17.89
2023-08-01T11:22:32.095Z,17.91
2023-08-01T11:27:37.838Z,17.92
2023-08-01T11:32:43.305Z,17.90
2023-08-01T11:37:50.968Z,18.01
2023-08-01T11:42:59.409Z,18.18
2023-08-01T11:48:05.864Z,18.36
2023-08-01T11:53:20.356Z,18.48
2023-08-01T11:58:32.591Z,18.65
2023-08-01T12:03:47.128Z,18.80
2023-08-01T12:08:54.888Z,18.93
2023-08-01T12:14:05.434Z,19.04
2023-08-01T12:19:11.735Z,19.19
2023-08-01T12:24:17.209Z,19.53
2023-08-01T12:29:22.575Z,19.60
2023-08-01T12:34:27.963Z,19.61
2023-08-01T12:39:33.443Z,19.67
2023-08-01T12:44:38.957Z,19.79
2023-08-01T12:49:44.728Z,20.30
2023-08-01T12:54:50.244Z,20.20
2023-08-01T12:59:55.603Z,19.97
2023-08-01T13:05:01.014Z,19.96
2023-08-01T13:10:07.568Z,20.08
2023-08-01T13:15:17.764Z,20.45
2023-08-01T13:20:23.819Z,20.79
2023-08-01T13:25:29.567Z,21.11
2023-08-01T13:30:34.937Z,20.96
2023-08-01T13:35:40.281Z,20.86
2023-08-01T13:40:45.677Z,21.03
2023-08-01T13:45:53.563Z,21.10
2023-08-01T13:51:01.264Z,21.35
2023-08-01T13:56:06.715Z,21.29
2023-08-01T14:01:12.138Z,21.41
2023-08-01T14:06:17.570Z,21.62
2023-08-01T14:11:23.022Z,21.69
2023-08-01T14:16:28.693Z,21.89
2023-08-01T14:21:36.742Z,21.97
2023-08-01T14:26:42.909Z,21.90
2023-08-01T14:31:48.527Z,21.96
2023-08-01T14:36:53.940Z,21.84
2023-08-01T14:42:04.937Z,21.65
2023-08-01T14:47:10.683Z,21.58
2023-08-01T14:52:16.155Z,21.74
2023-08-01T14:57:21.624Z,21.91
2023-08-01T15:02:27.392Z,21.68
2023-08-01T15:07:32.925Z,21.41
2023-08-01T15:12:38.555Z,21.15
2023-08-01T15:17:44.052Z,20.84
2023-08-01T15:22:49.444Z,20.48
2023-08-01T15:27:54.794Z,20.20
2023-08-01T15:33:00.162Z,19.96
2023-08-01T15:38:06.201Z,19.77
2023-08-01T15:43:12.309Z,19.77
2023-08-01T15:48:17.657Z,19.70
2023-08-01T15:53:23.529Z,19.73
2023-08-01T15:58:32.302Z,19.73
2023-08-01T16:03:39.378Z,19.78
2023-08-01T16:08:44.995Z,19.80
2023-08-01T16:13:50.396Z,19.81
2023-08-01T16:18:55.755Z,19.81
2023-08-01T16:24:02.364Z,19.94
2023-08-01T16:29:07.988Z,19.90
2023-08-01T16:34:13.377Z,19.86
2023-08-01T16:39:18.870Z,19.69
2023-08-01T16:44:24.239Z,19.56
2023-08-01T16:49:29.618Z,19.49
2023-08-01T16:54:35.268Z,19.53
2023-08-01T16:59:41.078Z,19.53
2023-08-01T17:04:46.731Z,19.57
2023-08-01T17:09:52.089Z,19.52
2023-08-01T17:14:57.535Z,19.47
2023-08-01T17:20:04.826Z,19.44
2023-08-01T17:25:10.979Z,19.39
2023-08-01T17:30:16.391Z,19.35
2023-08-01T17:35:21.876Z,19.31
2023-08-01T17:40:27.671Z,19.22
2023-08-01T17:45:32.997Z,19.11
2023-08-01T17:50:38.467Z,19.03
2023-08-01T17:55:43.839Z,18.93
2023-08-01T18:00:49.593Z,18.87
2023-08-01T18:06:05.270Z,18.83
2023-08-01T18:11:14.140Z,18.76
2023-08-01T18:16:23.397Z,18.62
2023-08-01T18:21:28.781Z,18.48
2023-08-01T18:26:35.736Z,18.35
2023-08-01T18:31:41.282Z,18.24
2023-08-01T18:36:46.637Z,18.17
2023-08-01T18:41:54.874Z,18.12
2023-08-01T18:47:00.258Z,18.07
2023-08-01T18:52:06.890Z,18.04
2023-08-01T18:57:12.267Z,17.98
2023-08-01T19:02:17.621Z,17.91
2023-08-01T19:07:22.978Z,17.88
2023-08-01T19:12:29.301Z,17.80
2023-08-01T19:17:34.654Z,17.68
2023-08-01T19:22:40.290Z,17.59
2023-08-01T19:27:45.635Z,17.50
2023-08-01T19:32:51.040Z,17.41
2023-08-01T19:37:56.448Z,17.31
2023-08-01T19:43:01.948Z,17.25
2023-08-01T19:48:09.971Z,17.17
2023-08-01T19:53:15.365Z,17.14
2023-08-01T19:58:21.001Z,17.07
2023-08-01T20:03:29.326Z,16.98
2023-08-01T20:08:35.308Z,16.93
2023-08-01T20:13:40.734Z,16.88
2023-08-01T20:18:46.078Z,16.84
2023-08-01T20:23:51.461Z,16.81
2023-08-01T20:28:56.789Z,16.78
2023-08-01T20:34:03.112Z,16.75
2023-08-01T20:39:09.202Z,16.68
2023-08-01T20:44:14.634Z,16.56
2023-08-01T20:49:19.982Z,16.47
2023-08-01T20:54:25.406Z,16.44
2023-08-01T20:59:31.669Z,16.37
2023-08-01T21:04:37.162Z,16.32
2023-08-01T21:09:42.545Z,16.25
2023-08-01T21:14:51.933Z,16.16
2023-08-01T21:19:57.296Z,16.07
2023-08-01T21:25:02.742Z,16.00
2023-08-01T21:30:10.035Z,15.98
2023-08-01T21:35:15.430Z,15.93
2023-08-01T21:40:20.900Z,15.85
2023-08-01T21:45:26.500Z,15.80
2023-08-01T21:50:31.946Z,15.75
2023-08-01T21:55:37.369Z,15.70
2023-08-01T22:00:43.631Z,15.66
2023-08-01T22:05:57.338Z,15.61
2023-08-01T22:11:02.834Z,15.56
2023-08-01T22:16:08.246Z,15.54
2023-08-01T22:21:13.662Z,15.52
2023-08-01T22:26:19.056Z,15.50
2023-08-01T22:31:24.477Z,15.49
2023-08-01T22:36:29.964Z,15.49
2023-08-01T22:41:35.456Z,15.48
2023-08-01T22:46:41.521Z,15.47
2023-08-01T22:51:47.205Z,15.49
2023-08-01T22:56:55.160Z,15.52
2023-08-01T23:02:00.532Z,15.57
2023-08-01T23:07:06.481Z,15.61
2023-08-01T23:12:11.955Z,15.65
2023-08-01T23:17:17.838Z,15.67
2023-08-01T23:22:23.195Z,15.69
2023-08-01T23:27:28.726Z,15.73
2023-08-01T23:32:34.283Z,15.76
2023-08-01T23:37:39.700Z,15.79
2023-08-01T23:42:45.727Z,15.78
2023-08-01T23:47:51.181Z,15.77
2023-08-01T23:52:56.595Z,15.78
2023-08-01T23:58:02.062Z,15.78
